Time;durP1;ratioP1;P1;durP2;ratioP2;P2;SDS_P1;SDS_P2;PMS_P1;PMS_P2;Temp;Humidity;BMP_temperature;BMP_pressure;BME280_temperature;BME280_humidity;BME280_pressure;Samples;Min_cycle;Max_cycle;Signal;HPM_P1;HPM_P2
2022/07/29 06:03:10;;;;;;;7.65;4.50;;;;;;;19.68;70.62;96381.34;2084570;28;20548;-65
2022/07/29 06:04:11;;;;;;;12.65;4.82;;;;;;;19.87;70.40;96388.56;2075315;28;20276;-66
2022/07/29 06:05:15;;;;;;;10.75;5.38;;;;;;;19.71;70.66;96396.97;2076740;28;20263;-66
2022/07/29 06:06:17;;;;;;;6.63;4.55;;;;;;;19.69;70.96;96400.72;2075414;28;20193;-66
2022/07/29 06:07:19;;;;;;;7.45;4.45;;;;;;;19.78;70.07;96396.44;2069250;28;20229;-66
2022/07/29 06:08:20;;;;;;;7.68;4.20;;;;;;;20.05;69.42;96395.91;2067982;28;20201;-66
2022/07/29 06:09:22;;;;;;;11.65;5.43;;;;;;;20.15;69.28;96407.38;2069004;28;20546;-66
2022/07/29 06:10:24;;;;;;;8.35;4.95;;;;;;;20.04;69.57;96402.19;2068406;28;20194;-66
2022/07/29 06:11:27;;;;;;;9.02;4.32;;;;;;;19.83;70.06;96402.22;2068667;28;20201;-66
2022/07/29 06:37:39;;;;;;;8.18;4.07;;;;;;;20.71;66.66;96418.44;2102168;27;20561;-65
2022/07/29 06:38:41;;;;;;;7.10;4.28;;;;;;;20.81;67.14;96418.44;2102276;28;20202;-66
2022/07/29 06:40:59;;;;;;;6.45;4.97;;;;;;;20.87;66.33;96424.06;2098811;28;20223;-66
2022/07/29 06:41:15;;;;;;;6.95;4.28;;;;;;;20.85;65.77;96420.69;2096200;28;20196;-66
2022/07/29 06:42:17;;;;;;;7.65;4.60;;;;;;;20.97;66.09;96426.69;2095732;28;20832;-66
2022/07/29 06:43:18;;;;;;;9.18;4.45;;;;;;;21.08;65.54;96425.72;2097190;28;20377;-66
2022/07/29 06:44:20;;;;;;;13.93;4.85;;;;;;;21.09;65.30;96418.59;2097842;28;20214;-66
2022/07/29 06:45:21;;;;;;;8.30;4.50;;;;;;;21.16;65.33;96427.69;2098932;28;20194;-66
2022/07/29 06:46:23;;;;;;;6.38;3.70;;;;;;;21.00;65.77;96425.56;2097915;28;20202;-66
2022/07/29 06:47:24;;;;;;;7.50;4.60;;;;;;;21.08;65.01;96425.72;2094629;28;20230;-65
2022/07/29 06:48:27;;;;;;;8.00;4.25;;;;;;;21.18;65.05;96421.25;2095791;28;20199;-66
2022/07/29 06:49:28;;;;;;;10.07;5.22;;;;;;;21.24;65.52;96429.63;2097375;28;20857;-65
2022/07/29 06:50:30;;;;;;;6.03;3.83;;;;;;;21.30;65.04;96429.09;2098043;28;20200;-66
2022/07/29 06:51:31;;;;;;;10.35;4.47;;;;;;;21.44;65.18;96433.94;2099151;28;20210;-65
2022/07/29 06:52:33;;;;;;;8.93;4.95;;;;;;;21.61;64.76;96436.88;2096801;28;20693;-65
2022/07/29 06:53:35;;;;;;;6.32;4.50;;;;;;;21.63;63.92;96429.63;2097310;28;20226;-65
2022/07/29 07:16:32;;;;;;;10.00;5.05;;;;;;;22.57;59.82;96447.34;2084123;28;20568;-67
2022/07/29 07:17:33;;;;;;;14.10;4.82;;;;;;;22.71;59.42;96451.34;2078399;28;20216;-67
2022/07/29 07:18:35;;;;;;;8.35;4.45;;;;;;;22.81;59.36;96445.97;2070662;28;20193;-68
2022/07/29 07:19:36;;;;;;;6.47;3.92;;;;;;;22.59;59.46;96449.88;2072022;28;20543;-67
2022/07/29 07:20:38;;;;;;;9.52;4.50;;;;;;;22.88;59.35;96447.06;2070085;28;20490;-68
2022/07/29 07:21:39;;;;;;;6.78;4.50;;;;;;;23.03;58.82;96449.19;2071610;28;20205;-68
2022/07/29 07:22:41;;;;;;;7.68;4.38;;;;;;;23.18;57.75;96439.69;2070227;28;20229;-67
2022/07/29 07:23:44;;;;;;;6.80;4.22;;;;;;;23.37;57.18;96449.34;2071041;28;20194;-68
2022/07/29 07:24:45;;;;;;;10.10;3.72;;;;;;;23.36;57.46;96449.53;2071695;28;20205;-68
2022/07/29 07:25:47;;;;;;;9.18;4.90;;;;;;;23.10;58.15;96450.25;2072665;28;20256;-65
2022/07/29 07:26:48;;;;;;;5.53;4.22;;;;;;;23.07;58.50;96442.56;2061492;28;20743;-65
2022/07/29 07:27:50;;;;;;;6.60;4.45;;;;;;;22.96;58.56;96448.97;2061899;28;20673;-66
2022/07/29 07:28:51;;;;;;;8.15;4.57;;;;;;;22.89;58.64;96443.38;2075752;28;20204;-65
2022/07/29 07:29:52;;;;;;;34.63;4.95;;;;;;;22.98;58.38;96450.47;2071013;28;20233;-65
2022/07/29 07:30:54;;;;;;;7.00;4.00;;;;;;;23.14;58.34;96449.78;2073219;28;20193;-65
2022/07/29 07:31:57;;;;;;;11.27;4.13;;;;;;;23.32;57.90;96454.31;2075601;28;20201;-65
2022/07/29 07:33:02;;;;;;;5.68;3.67;;;;;;;23.27;57.33;96454.78;2072163;28;20201;-65
2022/07/29 07:34:03;;;;;;;12.30;4.30;;;;;;;22.74;58.15;96445.75;2075110;28;20322;-65
2022/07/29 07:35:07;;;;;;;7.22;4.50;;;;;;;22.63;59.07;96449.44;2072300;28;20201;-65
2022/07/29 07:36:08;;;;;;;17.95;4.80;;;;;;;22.87;58.50;96449.84;2075378;28;20731;-65
2022/07/29 07:37:11;;;;;;;6.85;3.70;;;;;;;22.85;58.29;96452.66;2074820;28;20572;-65
2022/07/29 07:38:12;;;;;;;8.55;4.30;;;;;;;23.11;57.24;96455.44;2075318;28;20209;-65
2022/07/29 07:39:14;;;;;;;8.85;4.15;;;;;;;23.20;55.24;96450.19;2074330;28;20197;-65
2022/07/29 07:40:15;;;;;;;9.57;3.60;;;;;;;22.94;56.75;96454.44;2069917;28;20201;-65
2022/07/29 07:41:19;;;;;;;5.07;3.30;;;;;;;23.38;56.30;96459.03;2073234;28;20193;-65
2022/07/29 07:42:21;;;;;;;7.32;4.03;;;;;;;23.87;54.85;96458.59;2073331;28;20252;-65
2022/07/29 07:43:22;;;;;;;4.97;3.55;;;;;;;23.87;55.05;96457.72;2081288;28;20197;-65
2022/07/29 08:08:22;;;;;;;6.15;3.15;;;;;;;24.84;50.47;96461.09;2108165;27;20551;-67
2022/07/29 08:09:25;;;;;;;7.53;3.60;;;;;;;25.11;49.95;96467.16;2106029;28;20191;-67
2022/07/29 08:11:51;;;;;;;7.65;3.83;;;;;;;25.00;48.96;96459.47;2101285;27;20701;-65
2022/07/29 08:12:52;;;;;;;9.93;4.97;;;;;;;25.09;48.89;96462.00;2090976;28;20196;-66
2022/07/29 08:13:54;;;;;;;6.20;3.80;;;;;;;24.66;50.03;96471.03;2089763;28;20200;-65
2022/07/29 08:14:56;;;;;;;8.18;3.92;;;;;;;24.53;50.07;96464.31;2089541;28;20675;-65
2022/07/29 08:16:10;;;;;;;13.23;3.60;;;;;;;24.68;49.63;96463.72;2086772;28;20288;-66
2022/07/29 08:17:11;;;;;;;7.28;3.95;;;;;;;24.80;49.78;96466.91;2086414;28;20224;-65
2022/07/29 08:18:13;;;;;;;11.02;3.92;;;;;;;24.79;49.12;96460.75;2090143;28;20772;-65
2022/07/29 08:19:15;;;;;;;4.55;3.22;;;;;;;24.74;48.27;96463.06;2086831;28;20228;-66
2022/07/29 08:20:16;;;;;;;7.70;3.50;;;;;;;25.12;48.09;96460.81;2090475;28;20531;-66
2022/07/29 08:21:18;;;;;;;6.72;3.47;;;;;;;25.07;48.59;96463.97;2090089;28;20199;-65
2022/07/29 08:22:19;;;;;;;10.18;3.80;;;;;;;24.79;48.84;96447.41;2089063;28;20326;-65
2022/07/29 08:23:22;;;;;;;7.35;3.45;;;;;;;24.88;49.10;96464.28;2089619;28;20196;-66
2022/07/29 08:24:43;;;;;;;5.22;3.70;;;;;;;25.12;48.56;96463.50;2091902;28;20211;-65
2022/07/29 08:25:45;;;;;;;10.32;3.88;;;;;;;25.30;48.50;96466.03;2091598;28;20200;-65
2022/07/29 08:26:50;;;;;;;9.13;3.25;;;;;;;25.74;47.92;96464.91;2091441;28;20203;-66
2022/07/29 08:27:51;;;;;;;5.72;3.53;;;;;;;25.82;47.16;96461.38;2093448;28;20219;-66
2022/07/29 08:28:53;;;;;;;9.70;3.63;;;;;;;25.84;47.26;96460.22;2090428;28;20196;-66
2022/07/29 08:29:55;;;;;;;6.90;3.30;;;;;;;26.07;46.87;96457.69;2092241;28;20203;-66
2022/07/29 08:30:57;;;;;;;9.57;3.72;;;;;;;26.23;46.41;96462.19;2091931;28;20246;-66
2022/07/29 08:31:58;;;;;;;8.18;3.38;;;;;;;26.29;46.29;96468.66;2092256;28;20215;-65
2022/07/29 08:33:01;;;;;;;7.20;3.50;;;;;;;26.13;46.33;96474.06;2092908;28;20686;-65
2022/07/29 08:34:03;;;;;;;9.43;4.00;;;;;;;25.94;46.87;96467.22;2090222;28;20204;-65
2022/07/29 08:35:05;;;;;;;7.00;3.30;;;;;;;26.10;46.56;96459.19;2092402;28;20231;-65
2022/07/29 08:36:07;;;;;;;7.68;3.40;;;;;;;25.92;46.33;96467.38;2092422;28;20199;-65
2022/07/29 08:37:08;;;;;;;5.97;3.70;;;;;;;25.95;47.08;96468.88;2091490;28;20776;-66
2022/07/29 08:38:10;;;;;;;4.88;3.20;;;;;;;26.34;46.28;96469.00;2089898;28;20562;-66
2022/07/29 08:39:11;;;;;;;4.30;3.10;;;;;;;26.16;45.92;96471.88;2091030;28;20207;-66
2022/07/29 08:40:14;;;;;;;7.10;3.80;;;;;;;26.02;46.47;96473.38;2090873;28;20192;-65
2022/07/29 08:41:16;;;;;;;7.95;4.28;;;;;;;25.72;46.57;96464.22;2086984;28;20241;-65
2022/07/29 08:42:19;;;;;;;6.05;3.58;;;;;;;25.94;46.56;96464.53;2086684;28;20223;-66
2022/07/29 08:43:20;;;;;;;7.28;3.78;;;;;;;26.12;45.67;96461.69;2088285;28;20196;-65
2022/07/29 08:44:22;;;;;;;13.60;3.97;;;;;;;26.34;45.49;96473.50;2092757;28;20211;-66
2022/07/29 08:45:43;;;;;;;5.35;3.20;;;;;;;26.65;45.30;96470.03;2092022;28;20199;-66
2022/07/29 08:46:49;;;;;;;5.60;3.30;;;;;;;26.66;44.45;96471.72;2091570;28;20219;-66
2022/07/29 08:47:51;;;;;;;7.93;3.55;;;;;;;26.95;43.86;96465.75;2089941;28;20208;-66
2022/07/29 08:48:53;;;;;;;6.82;3.00;;;;;;;27.26;43.06;96466.72;2091783;28;20615;-66
2022/07/29 08:49:54;;;;;;;5.15;3.08;;;;;;;27.32;42.35;96471.38;2090670;28;20197;-66
2022/07/29 08:50:56;;;;;;;5.97;3.58;;;;;;;27.10;41.95;96462.34;2092919;28;20200;-66
2022/07/29 08:51:59;;;;;;;8.98;3.30;;;;;;;26.98;42.91;96464.56;2092515;28;20196;-66
2022/07/29 08:53:01;;;;;;;6.30;3.67;;;;;;;27.10;42.59;96465.84;2091405;28;20311;-66
2022/07/29 08:54:02;;;;;;;4.95;3.30;;;;;;;26.80;42.50;96472.88;2090736;28;20563;-66
2022/07/29 09:17:02;;;;;;;9.50;2.80;;;;;;;28.23;39.67;96468.00;2084202;28;20596;-64
2022/07/29 09:18:04;;;;;;;5.40;3.13;;;;;;;27.81;39.81;96467.53;2082896;28;20197;-64
2022/07/29 09:19:19;;;;;;;9.20;3.80;;;;;;;27.27;40.29;96442.44;2084629;28;20889;-64
2022/07/29 09:20:22;;;;;;;10.77;3.42;;;;;;;27.30;41.30;96466.22;2082932;28;20208;-64
2022/07/29 09:22:48;;;;;;;8.68;3.40;;;;;;;27.60;40.75;96460.16;2081121;28;20701;-64
2022/07/29 09:24:08;;;;;;;26.25;3.78;;;;;;;27.80;40.11;96463.16;2082789;28;20211;-65
2022/07/29 09:25:12;;;;;;;6.78;3.03;;;;;;;27.94;39.12;96454.31;2082582;28;20727;-64
2022/07/29 09:26:13;;;;;;;5.25;2.95;;;;;;;28.11;39.06;96463.06;2083801;28;20717;-64
2022/07/29 09:27:20;;;;;;;6.60;3.10;;;;;;;28.42;38.75;96464.75;2083109;28;20322;-64
2022/07/29 09:28:23;;;;;;;5.85;3.78;;;;;;;28.55;38.13;96461.38;2082272;28;20212;-64
2022/07/29 09:29:25;;;;;;;5.15;3.50;;;;;;;28.61;38.72;96459.81;2081680;28;20196;-64
2022/07/29 09:30:26;;;;;;;8.20;3.00;;;;;;;28.69;38.19;96464.28;2077941;28;20676;-64
2022/07/29 09:31:36;;;;;;;7.57;2.80;;;;;;;28.95;37.44;96469.13;2081783;28;20197;-64
2022/07/29 09:32:58;;;;;;;7.93;2.58;;;;;;;28.82;37.36;96453.69;2082521;28;20243;-64
2022/07/29 09:34:00;;;;;;;8.80;3.10;;;;;;;28.83;37.23;96458.06;2081335;28;20200;-64
2022/07/29 09:35:22;;;;;;;8.13;3.50;;;;;;;29.40;35.87;96459.09;2082767;28;20235;-64
2022/07/29 09:36:26;;;;;;;6.85;3.00;;;;;;;29.36;35.83;96452.47;2082520;28;20189;-65
2022/07/29 09:37:30;;;;;;;3.85;2.08;;;;;;;29.84;35.11;96459.06;2081393;28;20232;-64
2022/07/29 09:38:33;;;;;;;4.07;2.40;;;;;;;30.05;34.98;96460.91;2082487;28;20208;-65
2022/07/29 09:39:45;;;;;;;5.80;2.63;;;;;;;30.10;34.06;96461.97;2081741;28;20205;-64
2022/07/29 09:41:02;;;;;;;8.25;3.22;;;;;;;29.84;35.08;96457.22;2080311;28;20291;-67
2022/07/29 09:42:07;;;;;;;6.85;3.25;;;;;;;29.99;34.79;96457.13;2081331;28;20200;-67
2022/07/29 09:43:12;;;;;;;11.60;2.95;;;;;;;29.49;35.15;96449.88;2082479;28;20196;-67
2022/07/29 09:44:14;;;;;;;3.88;2.28;;;;;;;29.58;35.39;96455.97;2081046;28;20188;-67
2022/07/29 09:45:33;;;;;;;3.83;1.77;;;;;;;29.15;35.73;96451.41;2083264;28;20203;-67
2022/07/29 09:46:35;;;;;;;2.63;1.00;;;;;;;29.10;36.46;96453.81;2082948;28;20845;-66
2022/07/29 09:47:46;;;;;;;6.15;1.88;;;;;;;29.16;35.84;96449.53;2082637;28;20453;-67
2022/07/29 09:49:14;;;;;;;3.08;1.55;;;;;;;28.91;36.16;96454.41;2081503;28;20285;-67
2022/07/29 09:50:18;;;;;;;20.98;3.47;;;;;;;28.57;36.20;96455.81;2082322;28;20224;-67
2022/07/29 09:51:21;;;;;;;5.88;2.40;;;;;;;28.07;37.29;96452.88;2081877;28;20198;-67
2022/07/29 09:52:47;;;;;;;4.03;2.10;;;;;;;27.76;37.14;96448.47;2082844;28;20235;-67
2022/07/29 09:53:50;;;;;;;7.03;2.20;;;;;;;27.86;37.38;96446.34;2080611;28;20597;-67
2022/07/29 09:55:07;;;;;;;3.00;1.65;;;;;;;27.77;37.56;96447.41;2081512;28;20659;-67
2022/07/29 10:46:46;;;;;;;8.43;3.65;;;;;;;24.85;42.63;96453.91;2104229;27;20787;-68
2022/07/29 10:47:48;;;;;;;5.45;2.92;;;;;;;25.07;41.50;96455.97;2085891;28;20235;-70
2022/07/29 10:49:16;;;;;;;9.10;3.30;;;;;;;25.18;41.26;96457.50;2086541;28;20200;-70
2022/07/29 10:50:18;;;;;;;6.88;3.78;;;;;;;25.41;40.90;96456.88;2086439;28;20261;-70
2022/07/29 10:51:20;;;;;;;9.70;3.40;;;;;;;25.16;44.60;96458.66;2087341;28;20200;-69
2022/07/29 10:52:24;;;;;;;7.05;3.80;;;;;;;24.98;45.29;96451.63;2086647;28;20220;-69
2022/07/29 10:53:51;;;;;;;9.23;3.50;;;;;;;24.69;46.99;96455.53;2085338;28;20200;-68
2022/07/29 10:54:53;;;;;;;8.60;3.63;;;;;;;24.27;47.90;96446.50;2086502;28;20204;-69
2022/07/29 10:55:56;;;;;;;9.93;4.05;;;;;;;24.48;47.67;96453.28;2086017;28;20708;-68
2022/07/29 10:57:13;;;;;;;9.50;3.50;;;;;;;24.48;48.14;96455.94;2085474;28;20381;-68
2022/07/29 10:58:20;;;;;;;13.23;3.63;;;;;;;24.53;47.96;96450.09;2086843;28;20192;-68
2022/07/29 10:59:21;;;;;;;9.57;3.88;;;;;;;24.44;47.91;96446.56;2086164;28;20200;-68
2022/07/29 11:00:31;;;;;;;18.88;3.53;;;;;;;25.15;46.46;96455.13;2085603;28;20235;-68
2022/07/29 11:01:33;;;;;;;10.95;3.60;;;;;;;25.19;45.77;96448.50;2086914;28;20192;-68
2022/07/29 11:02:39;;;;;;;10.60;3.45;;;;;;;25.36;46.72;96443.19;2086395;28;20216;-68
2022/07/29 11:04:00;;;;;;;8.90;3.30;;;;;;;26.04;44.95;96447.31;2086771;28;20211;-69
2022/07/29 11:05:05;;;;;;;10.18;3.67;;;;;;;26.50;44.39;96446.69;2085981;28;20200;-69
2022/07/29 11:06:06;;;;;;;12.55;4.03;;;;;;;26.60;42.75;96437.59;2086089;28;20662;-70
2022/07/29 11:07:09;;;;;;;5.50;3.05;;;;;;;27.01;41.72;96437.44;2086231;28;20235;-69
2022/07/29 11:08:13;;;;;;;7.38;3.10;;;;;;;27.11;41.86;96440.72;2086924;28;20199;-69
2022/07/29 11:09:22;;;;;;;5.22;2.90;;;;;;;27.16;41.66;96445.53;2086227;28;20201;-71
2022/07/29 11:10:35;;;;;;;5.95;2.90;;;;;;;27.05;41.56;96444.09;2085606;28;20199;-71
2022/07/29 11:11:40;;;;;;;5.68;3.42;;;;;;;26.91;39.94;96437.66;2086253;28;20212;-70
2022/07/29 11:12:52;;;;;;;7.97;2.90;;;;;;;27.07;39.57;96442.09;2086505;28;20323;-70
2022/07/29 11:13:56;;;;;;;7.13;2.83;;;;;;;27.15;39.58;96446.56;2085343;28;20224;-69
2022/07/29 11:15:02;;;;;;;5.68;3.13;;;;;;;27.25;39.05;96444.47;2086155;28;20203;-67
2022/07/29 11:16:05;;;;;;;9.30;2.65;;;;;;;27.06;38.85;96440.41;2086512;28;20420;-67
2022/07/29 11:17:08;;;;;;;10.30;3.08;;;;;;;26.84;38.52;96437.53;2086456;28;20325;-67
2022/07/29 11:18:14;;;;;;;7.10;3.00;;;;;;;26.65;39.38;96429.88;2086756;28;20536;-67
2022/07/29 11:19:21;;;;;;;4.85;2.75;;;;;;;27.15;38.46;96431.31;2086842;28;20200;-68
2022/07/29 11:20:44;;;;;;;6.63;3.20;;;;;;;27.41;37.92;96438.16;2086629;28;20197;-68
2022/07/29 11:21:49;;;;;;;11.00;2.83;;;;;;;27.26;37.43;96429.22;2079865;28;20445;-68
2022/07/29 11:22:59;;;;;;;17.35;3.10;;;;;;;26.75;37.88;96411.78;2073867;28;20218;-68
2022/07/29 11:24:23;;;;;;;5.95;3.35;;;;;;;26.81;38.42;96429.00;2085724;28;20656;-68
2022/07/29 11:26:06;;;;;;;7.00;2.58;;;;;;;27.24;37.88;96440.13;2080468;28;20700;-68
2022/07/29 11:27:12;;;;;;;12.65;3.28;;;;;;;25.69;46.29;96445.84;2076175;28;20620;-68
2022/07/29 11:28:19;;;;;;;7.55;3.78;;;;;;;25.65;47.86;96460.53;2077021;28;20224;-68
2022/07/29 11:29:25;;;;;;;5.97;3.60;;;;;;;25.38;48.01;96451.84;2078343;28;20201;-69
2022/07/29 11:30:51;;;;;;;9.15;3.65;;;;;;;25.19;48.41;96450.31;2077994;28;20276;-69
2022/07/29 11:32:09;;;;;;;6.60;3.70;;;;;;;25.25;48.10;96449.66;2077835;28;20961;-69
2022/07/29 11:33:34;;;;;;;9.73;3.58;;;;;;;25.03;48.60;96454.63;2077860;28;20194;-69
2022/07/29 11:35:20;;;;;;;6.72;3.10;;;;;;;24.94;50.19;96452.94;2077212;28;20341;-68
2022/07/29 11:37:14;;;;;;;8.07;4.05;;;;;;;24.34;51.95;96454.72;2077386;28;20266;-68
2022/07/29 11:38:26;;;;;;;7.10;3.88;;;;;;;23.97;52.26;96447.81;2086766;28;20687;-68
2022/07/29 11:39:29;;;;;;;5.40;3.40;;;;;;;23.89;52.59;96453.09;2086541;28;20197;-69
2022/07/29 11:40:37;;;;;;;6.28;3.55;;;;;;;24.20;52.30;96449.94;2085527;28;20196;-69
2022/07/29 11:41:42;;;;;;;6.25;2.60;;;;;;;24.25;52.13;96453.84;2086658;28;20197;-69
2022/07/29 11:42:45;;;;;;;6.60;3.30;;;;;;;24.28;51.40;96450.84;2086231;28;20609;-69
2022/07/29 11:43:49;;;;;;;8.60;4.43;;;;;;;23.68;52.92;96446.28;2086949;28;20200;-69
2022/07/29 11:45:06;;;;;;;8.40;3.80;;;;;;;23.84;52.89;96453.53;2086666;28;20619;-69
2022/07/29 11:46:42;;;;;;;4.82;3.17;;;;;;;23.79;52.52;96456.69;2086224;28;20232;-69
2022/07/29 11:47:50;;;;;;;6.53;3.25;;;;;;;23.72;52.91;96450.31;2086214;28;20212;-68
2022/07/29 11:48:51;;;;;;;5.78;2.97;;;;;;;23.96;52.23;96449.66;2086461;28;20283;-68
2022/07/29 11:49:56;;;;;;;7.43;3.90;;;;;;;23.88;51.95;96449.56;2086732;28;20311;-68
2022/07/29 11:51:09;;;;;;;7.60;3.53;;;;;;;24.35;50.14;96445.69;2086328;28;20262;-68
2022/07/29 11:52:11;;;;;;;5.95;3.38;;;;;;;24.42;50.26;96456.59;2086304;28;20216;-69
2022/07/29 11:53:15;;;;;;;7.60;3.80;;;;;;;24.18;49.81;96452.78;2086939;28;20279;-68
2022/07/29 11:54:25;;;;;;;7.32;2.90;;;;;;;24.28;49.56;96458.00;2084524;28;20207;-69
2022/07/29 11:55:28;;;;;;;10.00;3.50;;;;;;;24.19;49.97;96458.94;2086549;28;20200;-68
2022/07/29 11:56:38;;;;;;;11.52;3.10;;;;;;;24.13;49.40;96452.44;2082492;28;20243;-69
2022/07/29 11:57:52;;;;;;;9.73;3.60;;;;;;;23.87;50.92;96461.25;2077515;28;20390;-69
2022/07/29 12:37:55;;;;;;;4.72;3.15;;;;;;;24.40;49.91;96448.72;2090601;28;20551;-63
2022/07/29 12:38:56;;;;;;;7.65;2.97;;;;;;;23.98;51.36;96454.84;2091167;28;20196;-64
2022/07/29 12:39:58;;;;;;;5.45;2.80;;;;;;;23.96;51.50;96448.84;2090646;28;20262;-64
2022/07/29 12:41:00;;;;;;;10.65;3.35;;;;;;;23.71;52.98;96453.13;2089929;28;20200;-64
2022/07/29 12:42:14;;;;;;;4.53;2.97;;;;;;;23.34;55.45;96463.00;2084738;28;20195;-65
2022/07/29 12:43:23;;;;;;;10.13;3.13;;;;;;;23.29;57.17;96454.63;2074302;28;20212;-64
2022/07/29 12:44:43;;;;;;;5.45;3.38;;;;;;;23.07;58.95;96458.53;2074160;28;20201;-65
2022/07/29 12:45:56;;;;;;;9.23;3.40;;;;;;;22.61;60.29;96462.06;2075847;28;20723;-65
2022/07/29 12:47:04;;;;;;;10.15;3.97;;;;;;;22.74;60.14;96455.53;2069867;28;20198;-65
2022/07/29 12:48:08;;;;;;;5.47;3.58;;;;;;;22.92;58.77;96464.38;2070566;28;20198;-65
2022/07/29 13:25:25;;;;;;;10.85;3.50;;;;;;;22.12;60.67;96488.81;2100861;27;20564;-64
2022/07/29 13:26:27;;;;;;;10.68;3.45;;;;;;;22.19;60.40;96489.06;2093332;28;20639;-64
2022/07/29 13:27:34;;;;;;;9.63;3.72;;;;;;;22.17;60.09;96491.06;2085618;28;20224;-64
2022/07/29 13:28:35;;;;;;;15.00;4.07;;;;;;;22.38;59.65;96482.03;2084165;28;20212;-65
2022/07/29 13:29:39;;;;;;;11.70;2.83;;;;;;;22.53;58.79;96490.38;2083506;28;20193;-65
2022/07/29 13:30:42;;;;;;;6.28;3.67;;;;;;;22.75;57.23;96474.00;2084217;28;20599;-65
2022/07/29 13:31:45;;;;;;;8.20;3.50;;;;;;;22.85;57.23;96470.47;2084048;28;20207;-65
2022/07/29 13:32:47;;;;;;;4.97;2.65;;;;;;;23.30;56.69;96483.78;2085121;28;20254;-65
2022/07/29 13:33:49;;;;;;;8.38;3.00;;;;;;;23.53;55.62;96479.78;2083899;28;20208;-65
2022/07/29 13:34:55;;;;;;;5.55;3.17;;;;;;;23.80;53.77;96477.00;2082674;28;20246;-66
2022/07/29 13:35:56;;;;;;;6.57;3.63;;;;;;;24.04;53.93;96469.38;2083641;28;20196;-65
2022/07/29 13:36:58;;;;;;;8.02;2.90;;;;;;;24.22;52.63;96470.13;2084715;28;20201;-66
2022/07/29 13:37:59;;;;;;;6.85;3.65;;;;;;;24.12;52.40;96475.59;2085540;28;20203;-65
2022/07/29 13:39:02;;;;;;;5.90;2.92;;;;;;;24.27;51.26;96475.84;2085848;28;20575;-65
2022/07/29 13:40:05;;;;;;;7.07;2.90;;;;;;;24.26;50.68;96479.53;2084582;28;20204;-66
2022/07/29 13:41:07;;;;;;;5.65;2.65;;;;;;;24.27;50.76;96473.16;2083560;28;20342;-65
2022/07/29 13:42:09;;;;;;;4.72;2.70;;;;;;;24.28;50.92;96477.50;2082142;28;20239;-65
2022/07/29 13:43:11;;;;;;;13.32;3.28;;;;;;;24.32;50.27;96482.56;2085636;28;20195;-65
2022/07/29 13:44:13;;;;;;;5.38;2.70;;;;;;;24.28;49.00;96480.19;2085940;28;20698;-65
2022/07/29 13:45:14;;;;;;;7.70;2.75;;;;;;;24.40;48.70;96486.06;2085116;28;20208;-65
2022/07/29 13:46:15;;;;;;;4.95;2.70;;;;;;;24.53;48.62;96479.47;2084605;28;20207;-66
2022/07/29 13:47:18;;;;;;;5.75;2.30;;;;;;;24.46;48.19;96480.09;2083648;28;20231;-65
2022/07/29 13:48:20;;;;;;;9.13;2.97;;;;;;;24.56;48.11;96476.50;2083728;28;20227;-65
2022/07/29 13:49:22;;;;;;;4.40;2.35;;;;;;;24.41;49.30;96470.91;2082465;28;20204;-65
2022/07/29 13:50:23;;;;;;;8.05;2.97;;;;;;;24.31;49.90;96467.53;2082779;28;20240;-66
2022/07/29 13:51:25;;;;;;;9.30;3.03;;;;;;;24.52;49.50;96478.63;2082858;28;20207;-65
2022/07/29 13:52:27;;;;;;;7.65;2.85;;;;;;;24.51;50.61;96474.28;2082155;28;20212;-66
2022/07/29 13:53:28;;;;;;;7.65;2.70;;;;;;;24.53;51.03;96468.78;2080641;28;20196;-65
2022/07/29 13:54:30;;;;;;;6.00;2.55;;;;;;;24.47;51.28;96467.59;2082493;28;20255;-65
2022/07/29 13:55:31;;;;;;;7.75;3.30;;;;;;;24.41;51.63;96461.06;2082636;28;20204;-65
2022/07/29 13:56:33;;;;;;;10.27;2.90;;;;;;;24.53;50.50;96468.78;2083020;28;20914;-65
2022/07/29 13:57:35;;;;;;;7.93;3.45;;;;;;;24.60;49.95;96449.28;2082366;28;20221;-65
2022/07/29 13:58:36;;;;;;;10.95;3.30;;;;;;;24.43;50.47;96456.41;2083867;28;20202;-66
2022/07/29 13:59:39;;;;;;;4.05;2.45;;;;;;;24.18;50.94;96452.78;2083534;28;20197;-66
2022/07/29 14:00:41;;;;;;;6.43;2.70;;;;;;;24.28;51.22;96460.69;2084448;28;20193;-65
2022/07/29 14:01:43;;;;;;;10.75;3.75;;;;;;;24.46;51.29;96457.94;2082730;28;20200;-65
2022/07/29 14:02:45;;;;;;;6.75;3.28;;;;;;;24.55;49.63;96454.28;2082650;28;20307;-65
2022/07/29 14:03:47;;;;;;;7.55;3.08;;;;;;;24.57;48.92;96454.13;2082764;28;20196;-65
2022/07/29 14:04:48;;;;;;;10.23;3.30;;;;;;;24.37;48.55;96454.38;2082579;28;20574;-66
2022/07/29 14:05:50;;;;;;;5.00;3.05;;;;;;;24.45;48.12;96451.75;2083759;28;20666;-65
2022/07/29 14:06:52;;;;;;;10.32;2.90;;;;;;;24.51;47.87;96444.94;2082199;28;20201;-65
2022/07/29 14:07:53;;;;;;;11.48;3.85;;;;;;;24.45;48.23;96450.91;2085450;28;20208;-65
2022/07/29 14:08:54;;;;;;;7.07;2.85;;;;;;;24.47;47.71;96454.25;2084788;28;20836;-66
2022/07/29 14:09:56;;;;;;;4.93;2.58;;;;;;;24.55;47.49;96445.44;2085106;28;20559;-65
2022/07/29 14:10:58;;;;;;;6.75;3.53;;;;;;;24.64;47.83;96447.19;2083894;28;20612;-65
2022/07/29 14:11:59;;;;;;;7.85;3.78;;;;;;;24.77;48.04;96444.91;2083459;28;20193;-66
2022/07/29 14:13:01;;;;;;;5.60;3.22;;;;;;;24.95;48.17;96449.28;2084755;28;20201;-65
2022/07/29 14:14:04;;;;;;;8.25;3.25;;;;;;;25.08;48.03;96446.13;2085120;28;20656;-65
2022/07/29 14:15:06;;;;;;;6.10;2.63;;;;;;;24.72;48.54;96451.69;2085427;28;20188;-65
2022/07/29 14:16:07;;;;;;;5.25;3.28;;;;;;;24.72;48.91;96452.56;2083757;28;20204;-65
2022/07/29 14:17:09;;;;;;;11.27;3.40;;;;;;;24.71;49.50;96452.69;2082004;28;20251;-65
2022/07/29 14:18:10;;;;;;;9.15;3.38;;;;;;;24.85;49.51;96445.91;2082849;28;20633;-65
2022/07/29 14:19:12;;;;;;;4.95;2.80;;;;;;;25.02;48.45;96449.47;2082240;28;20193;-65
2022/07/29 14:20:15;;;;;;;5.47;2.30;;;;;;;25.22;48.14;96456.16;2082582;28;20743;-65
2022/07/29 14:21:18;;;;;;;6.68;2.83;;;;;;;25.20;47.61;96444.78;2084703;28;20221;-65
2022/07/29 14:22:19;;;;;;;4.88;2.60;;;;;;;25.12;47.53;96449.31;2085116;28;20266;-65
2022/07/29 14:23:26;;;;;;;4.95;2.78;;;;;;;25.16;47.51;96450.66;2084490;28;20199;-65
2022/07/29 14:24:28;;;;;;;8.43;2.95;;;;;;;25.18;47.36;96444.16;2083821;28;20192;-65
2022/07/29 14:25:29;;;;;;;6.05;3.20;;;;;;;24.95;45.97;96446.63;2084278;28;20213;-65
2022/07/29 14:26:30;;;;;;;7.95;3.30;;;;;;;25.26;45.63;96448.66;2085567;28;20201;-65
2022/07/29 14:27:32;;;;;;;7.50;2.75;;;;;;;25.37;46.50;96442.16;2085274;28;20255;-65
2022/07/29 14:28:38;;;;;;;6.43;2.85;;;;;;;25.52;46.16;96442.34;2083598;28;20200;-65
2022/07/29 14:29:42;;;;;;;7.63;3.05;;;;;;;25.18;47.37;96440.63;2082298;28;20667;-65
2022/07/29 14:30:44;;;;;;;3.10;2.10;;;;;;;25.40;44.04;96445.34;2083721;28;20282;-65
2022/07/29 14:31:45;;;;;;;7.72;2.22;;;;;;;25.42;43.42;96446.03;2084078;28;20550;-65
2022/07/29 14:32:47;;;;;;;9.65;2.67;;;;;;;25.48;42.67;96443.69;2080884;28;20278;-65
2022/07/29 14:33:48;;;;;;;5.40;1.95;;;;;;;25.59;42.34;96446.84;2081230;28;20660;-65
2022/07/29 14:34:50;;;;;;;5.85;2.20;;;;;;;25.55;43.41;96444.69;2080711;28;20196;-65
2022/07/29 14:35:51;;;;;;;9.50;3.10;;;;;;;25.52;43.30;96445.88;2084772;28;20193;-65
2022/07/29 14:36:55;;;;;;;4.90;2.33;;;;;;;25.61;43.71;96441.34;2078949;28;20221;-65
2022/07/29 14:37:57;;;;;;;5.40;2.25;;;;;;;25.61;43.83;96454.72;2078562;28;20193;-65
2022/07/29 14:38:58;;;;;;;11.77;2.92;;;;;;;25.68;44.21;96449.53;2077932;28;20205;-65
2022/07/29 14:40:02;;;;;;;6.88;2.40;;;;;;;25.63;44.07;96443.84;2077139;28;20208;-64
2022/07/29 14:41:04;;;;;;;7.65;2.88;;;;;;;25.50;44.08;96439.84;2078029;28;20206;-65
2022/07/29 14:42:05;;;;;;;3.72;2.45;;;;;;;25.60;45.37;96450.38;2077228;28;20197;-64
2022/07/29 14:43:07;;;;;;;4.13;1.90;;;;;;;25.52;40.87;96451.22;2077403;28;20197;-65
2022/07/29 14:44:09;;;;;;;3.97;2.08;;;;;;;25.72;40.87;96454.34;2077679;28;20197;-64
2022/07/29 14:45:10;;;;;;;5.78;2.25;;;;;;;25.63;39.23;96452.69;2078052;28;20652;-65
2022/07/29 14:46:12;;;;;;;6.53;1.73;;;;;;;25.83;38.77;96461.22;2076221;28;20221;-65
2022/07/29 14:47:13;;;;;;;7.70;1.88;;;;;;;26.10;38.15;96456.50;2076307;28;20252;-64
2022/07/29 14:48:15;;;;;;;4.35;1.75;;;;;;;26.05;36.99;96454.34;2078927;28;20201;-65
2022/07/29 14:49:16;;;;;;;4.80;2.05;;;;;;;26.22;38.95;96454.28;2076647;28;20684;-64
2022/07/29 14:50:19;;;;;;;7.03;2.60;;;;;;;26.23;38.11;96450.63;2077174;28;20235;-64